Time;durP1;ratioP1;P1;durP2;ratioP2;P2;SDS_P1;SDS_P2;PMS_P1;PMS_P2;Temp;Humidity;BMP_temperature;BMP_pressure;BME280_temperature;BME280_humidity;BME280_pressure;Samples;Min_cycle;Max_cycle;Signal;HPM_P1;HPM_P2
2023/01/28 00:01:37;;;;;;;4.03;2.17;;;;;;;;;;7388320;19;20440;-74
2023/01/28 00:04:02;;;;;;;2.83;1.70;;;;;;;;;;7389614;19;20077;-75
2023/01/28 00:06:28;;;;;;;3.45;1.83;;;;;;;;;;7390983;19;19997;-75
2023/01/28 00:08:54;;;;;;;3.63;2.05;;;;;;;;;;7390196;19;20553;-75
2023/01/28 00:11:21;;;;;;;4.30;2.20;;;;;;;;;;7392178;19;19999;-75
2023/01/28 00:13:51;;;;;;;3.85;2.08;;;;;;;;;;7387419;19;19995;-76
2023/01/28 00:16:17;;;;;;;4.47;2.25;;;;;;;;;;7391711;19;20010;-73
2023/01/28 00:18:42;;;;;;;4.50;2.17;;;;;;;;;;7388228;19;20027;-75
2023/01/28 00:21:11;;;;;;;2.92;1.98;;;;;;;;;;7385682;19;20012;-74
2023/01/28 00:23:38;;;;;;;2.50;1.80;;;;;;;;;;7386180;19;20035;-74
2023/01/28 00:26:12;;;;;;;5.43;1.92;;;;;;;;;;7387042;19;19998;-76
2023/01/28 00:28:37;;;;;;;3.88;2.08;;;;;;;;;;7385823;19;20481;-74
2023/01/28 00:31:24;;;;;;;3.05;1.92;;;;;;;;;;7387242;19;19995;-75
2023/01/28 00:33:50;;;;;;;3.65;2.10;;;;;;;;;;7383159;19;20061;-75
2023/01/28 00:36:17;;;;;;;3.97;2.10;;;;;;;;;;7385703;19;20002;-75
2023/01/28 00:38:51;;;;;;;4.15;2.10;;;;;;;;;;7384290;19;20003;-75
2023/01/28 00:41:20;;;;;;;3.10;2.20;;;;;;;;;;7386509;19;20002;-74
2023/01/28 00:43:47;;;;;;;5.88;2.05;;;;;;;;;;7386627;19;19998;-75
2023/01/28 00:46:13;;;;;;;4.30;2.13;;;;;;;;;;7386534;19;20006;-76
2023/01/28 00:48:40;;;;;;;4.18;2.22;;;;;;;;;;7385184;19;19999;-75
2023/01/28 00:51:06;;;;;;;3.53;2.35;;;;;;;;;;7386778;19;20442;-76
2023/01/28 00:53:33;;;;;;;3.70;2.30;;;;;;;;;;7385769;19;20019;-75
2023/01/28 00:55:59;;;;;;;9.18;2.45;;;;;;;;;;7390663;19;20002;-75
2023/01/28 00:58:25;;;;;;;3.97;2.17;;;;;;;;;;7385838;19;20007;-75
2023/01/28 01:00:50;;;;;;;5.85;1.95;;;;;;;;;;7386730;19;20014;-75
2023/01/28 01:03:16;;;;;;;4.32;2.20;;;;;;;;;;7384999;19;20009;-75
2023/01/28 01:05:42;;;;;;;4.07;2.00;;;;;;;;;;7386245;19;20349;-73
2023/01/28 01:08:07;;;;;;;5.22;2.55;;;;;;;;;;7385499;19;19999;-75
2023/01/28 01:10:33;;;;;;;3.38;2.05;;;;;;;;;;7386042;19;20065;-75
2023/01/28 01:12:58;;;;;;;5.63;2.50;;;;;;;;;;7385430;19;19991;-74
2023/01/28 01:15:24;;;;;;;5.45;2.13;;;;;;;;;;7386240;19;20528;-74
2023/01/28 01:17:50;;;;;;;4.32;2.45;;;;;;;;;;7385235;19;20006;-75
2023/01/28 01:20:17;;;;;;;3.75;2.10;;;;;;;;;;7385773;19;20002;-75
2023/01/28 01:22:42;;;;;;;5.00;2.33;;;;;;;;;;7384966;19;20005;-75
2023/01/28 01:25:08;;;;;;;3.97;2.20;;;;;;;;;;7386408;19;19994;-75
2023/01/28 01:27:33;;;;;;;5.95;2.60;;;;;;;;;;7385116;19;20025;-75
2023/01/28 01:29:59;;;;;;;3.25;2.10;;;;;;;;;;7389937;19;20015;-75
2023/01/28 01:32:28;;;;;;;8.88;2.50;;;;;;;;;;7396304;19;20062;-75
2023/01/28 01:34:54;;;;;;;5.53;2.40;;;;;;;;;;7393353;19;19998;-74
2023/01/28 01:37:19;;;;;;;5.32;2.50;;;;;;;;;;7391745;19;20101;-74
2023/01/28 01:39:44;;;;;;;5.25;2.38;;;;;;;;;;7393868;19;20003;-75
2023/01/28 01:42:11;;;;;;;3.60;2.10;;;;;;;;;;7394223;19;20054;-74
2023/01/28 01:45:04;;;;;;;6.00;2.70;;;;;;;;;;7390572;19;20019;-74
2023/01/28 01:47:40;;;;;;;5.45;2.20;;;;;;;;;;7392664;19;20511;-74
2023/01/28 01:50:15;;;;;;;4.18;2.45;;;;;;;;;;7394881;19;20003;-74
2023/01/28 01:52:41;;;;;;;7.57;2.22;;;;;;;;;;7390299;19;20037;-75
2023/01/28 01:55:12;;;;;;;3.67;2.05;;;;;;;;;;7392873;19;19998;-74
2023/01/28 01:57:38;;;;;;;4.13;2.28;;;;;;;;;;7392341;19;19998;-76
2023/01/28 02:00:06;;;;;;;3.78;1.80;;;;;;;;;;7392477;19;19999;-75
2023/01/28 02:02:44;;;;;;;4.82;1.85;;;;;;;;;;7392369;19;20242;-73
2023/01/28 02:05:12;;;;;;;3.90;2.10;;;;;;;;;;7392312;19;20045;-74
2023/01/28 02:07:39;;;;;;;3.78;2.33;;;;;;;;;;7391820;19;20086;-74
2023/01/28 02:10:05;;;;;;;3.80;2.17;;;;;;;;;;7392131;19;20006;-74
2023/01/28 02:12:35;;;;;;;3.75;1.95;;;;;;;;;;7391889;19;20022;-74
2023/01/28 02:15:06;;;;;;;5.55;2.53;;;;;;;;;;7391912;19;20084;-75
2023/01/28 02:17:31;;;;;;;3.67;2.03;;;;;;;;;;7392042;19;20027;-74
2023/01/28 02:20:06;;;;;;;4.25;2.35;;;;;;;;;;7391415;19;20429;-75
2023/01/28 02:22:40;;;;;;;5.97;2.33;;;;;;;;;;7391141;19;19994;-75
2023/01/28 02:25:47;;;;;;;3.28;1.67;;;;;;;;;;7389779;19;20430;-75
2023/01/28 02:28:32;;;;;;;6.47;2.00;;;;;;;;;;7394277;19;20069;-74
2023/01/28 02:31:30;;;;;;;4.93;2.17;;;;;;;;;;7391168;19;19994;-75
2023/01/28 02:34:04;;;;;;;3.85;1.92;;;;;;;;;;7391054;19;20080;-75
2023/01/28 02:36:38;;;;;;;3.78;1.98;;;;;;;;;;7390672;19;19998;-74
2023/01/28 02:39:14;;;;;;;2.92;1.80;;;;;;;;;;7388805;19;20123;-74
2023/01/28 02:41:48;;;;;;;3.08;2.08;;;;;;;;;;7390638;19;20524;-75
2023/01/28 02:44:13;;;;;;;3.72;2.13;;;;;;;;;;7383781;19;20016;-74
2023/01/28 02:49:32;;;;;;;1.67;1.50;;;;;;;;;;7388701;19;20009;-75
2023/01/28 02:53:39;;;;;;;3.05;1.70;;;;;;;;;;7390342;19;20005;-75
2023/01/28 02:55:13;;;;;;;2.17;1.60;;;;;;;;;;7390346;19;20002;-75
2023/01/28 02:57:53;;;;;;;3.92;1.65;;;;;;;;;;7391107;19;20288;-75
2023/01/28 03:00:26;;;;;;;3.80;2.03;;;;;;;;;;7394355;19;19994;-75
2023/01/28 03:03:06;;;;;;;4.43;2.30;;;;;;;;;;7389221;19;20457;-75
2023/01/28 03:05:38;;;;;;;6.00;2.28;;;;;;;;;;7389856;19;20073;-74
2023/01/28 03:09:21;;;;;;;3.67;2.20;;;;;;;;;;7388934;19;20002;-74
2023/01/28 03:38:55;;;;;;;6.57;2.63;;;;;;;;;;7387834;19;20006;-75
2023/01/28 03:41:22;;;;;;;4.00;2.20;;;;;;;;;;7391888;19;20464;-75
2023/01/28 03:43:49;;;;;;;3.78;1.90;;;;;;;;;;7387429;19;20106;-75
2023/01/28 03:46:15;;;;;;;5.75;2.22;;;;;;;;;;7389432;19;20010;-74
2023/01/28 03:48:40;;;;;;;4.25;2.30;;;;;;;;;;7387578;19;19998;-75
2023/01/28 03:51:06;;;;;;;2.67;1.80;;;;;;;;;;7391026;19;20014;-74
2023/01/28 03:53:31;;;;;;;3.08;2.00;;;;;;;;;;7388370;19;20011;-75
2023/01/28 03:55:56;;;;;;;5.25;2.10;;;;;;;;;;7388200;19;19998;-75
2023/01/28 03:58:25;;;;;;;4.50;2.15;;;;;;;;;;7388224;19;20003;-74
2023/01/28 04:00:52;;;;;;;5.28;2.25;;;;;;;;;;7388557;19;20003;-74
2023/01/28 04:03:19;;;;;;;3.55;2.05;;;;;;;;;;7386690;19;20679;-73
2023/01/28 04:06:11;;;;;;;4.45;2.35;;;;;;;;;;7388119;19;20006;-74
2023/01/28 04:08:36;;;;;;;4.95;1.90;;;;;;;;;;7386422;19;20032;-75
2023/01/28 04:11:18;;;;;;;4.43;2.20;;;;;;;;;;7387998;19;19998;-73
2023/01/28 04:13:47;;;;;;;8.20;2.60;;;;;;;;;;7387483;19;20027;-75
2023/01/28 04:16:15;;;;;;;3.70;2.00;;;;;;;;;;7388426;19;20283;-74
2023/01/28 04:18:42;;;;;;;4.20;2.40;;;;;;;;;;7386392;19;20002;-73
2023/01/28 04:21:07;;;;;;;5.82;2.35;;;;;;;;;;7387576;19;20479;-75
2023/01/28 04:23:33;;;;;;;3.90;2.50;;;;;;;;;;7385919;19;19998;-74
2023/01/28 04:25:59;;;;;;;3.33;2.30;;;;;;;;;;7386181;19;20140;-74
2023/01/28 04:28:24;;;;;;;3.28;1.77;;;;;;;;;;7386706;19;20003;-74
2023/01/28 04:30:51;;;;;;;4.45;2.25;;;;;;;;;;7388713;19;20027;-74
2023/01/28 04:33:16;;;;;;;2.25;1.60;;;;;;;;;;7395325;19;20017;-76
2023/01/28 04:35:41;;;;;;;4.20;2.50;;;;;;;;;;7393715;19;20251;-75
2023/01/28 04:38:07;;;;;;;2.08;1.30;;;;;;;;;;7396993;19;20338;-73
2023/01/28 04:40:33;;;;;;;5.00;2.47;;;;;;;;;;7389140;19;20011;-74
2023/01/28 04:42:58;;;;;;;3.72;2.20;;;;;;;;;;7385763;19;20015;-75
2023/01/28 04:45:23;;;;;;;4.93;2.35;;;;;;;;;;7387044;19;20010;-75
2023/01/28 04:47:49;;;;;;;4.32;1.90;;;;;;;;;;7386342;19;20019;-75
2023/01/28 04:50:15;;;;;;;5.00;2.67;;;;;;;;;;7386543;19;20007;-75
2023/01/28 04:52:40;;;;;;;6.63;2.33;;;;;;;;;;7383244;19;19999;-75
2023/01/28 04:55:06;;;;;;;3.58;1.98;;;;;;;;;;7382599;19;19994;-76
2023/01/28 04:57:31;;;;;;;4.32;1.88;;;;;;;;;;7384791;19;19998;-74
2023/01/28 04:59:57;;;;;;;6.63;2.05;;;;;;;;;;7389718;19;19999;-75
2023/01/28 05:02:22;;;;;;;4.97;2.60;;;;;;;;;;7385855;19;20002;-75
2023/01/28 05:04:47;;;;;;;5.85;2.10;;;;;;;;;;7383816;19;20406;-75
2023/01/28 05:07:13;;;;;;;2.72;1.60;;;;;;;;;;7390314;19;20003;-74
2023/01/28 05:09:38;;;;;;;5.15;2.35;;;;;;;;;;7396862;19;20002;-74
2023/01/28 05:12:07;;;;;;;3.13;1.67;;;;;;;;;;7393558;19;20002;-74
2023/01/28 05:14:32;;;;;;;4.32;2.05;;;;;;;;;;7393031;19;19991;-74
2023/01/28 05:16:57;;;;;;;3.45;1.90;;;;;;;;;;7393269;19;20005;-75
2023/01/28 05:19:22;;;;;;;6.47;2.38;;;;;;;;;;7390579;19;19998;-74
2023/01/28 05:21:48;;;;;;;5.65;2.03;;;;;;;;;;7392789;19;19998;-74
2023/01/28 05:24:14;;;;;;;11.95;2.92;;;;;;;;;;7390483;19;19999;-75
2023/01/28 05:26:40;;;;;;;15.55;3.58;;;;;;;;;;7393031;19;20015;-74
2023/01/28 05:29:05;;;;;;;8.82;2.50;;;;;;;;;;7391487;19;20006;-74
2023/01/28 05:31:30;;;;;;;8.88;2.45;;;;;;;;;;7392753;19;19994;-74
2023/01/28 05:33:56;;;;;;;3.53;1.85;;;;;;;;;;7392327;19;20024;-74
2023/01/28 05:36:21;;;;;;;4.78;1.90;;;;;;;;;;7393203;19;19999;-75
2023/01/28 05:38:47;;;;;;;21.95;3.45;;;;;;;;;;7391054;19;20461;-75
2023/01/28 05:41:12;;;;;;;13.95;2.22;;;;;;;;;;7392798;19;19998;-74
2023/01/28 05:43:37;;;;;;;15.23;2.92;;;;;;;;;;7391026;19;20561;-74
2023/01/28 05:46:03;;;;;;;12.27;2.20;;;;;;;;;;7392391;19;20480;-75
2023/01/28 05:48:28;;;;;;;12.13;3.00;;;;;;;;;;7394273;19;20074;-75
2023/01/28 05:50:53;;;;;;;10.52;2.45;;;;;;;;;;7392556;19;19999;-76
2023/01/28 05:53:19;;;;;;;10.35;2.22;;;;;;;;;;7392122;19;19991;-75
2023/01/28 05:55:52;;;;;;;11.55;1.95;;;;;;;;;;7392571;19;20030;-74
2023/01/28 05:58:18;;;;;;;16.23;2.50;;;;;;;;;;7391817;19;19991;-75
2023/01/28 06:00:44;;;;;;;14.85;2.50;;;;;;;;;;7393242;19;20094;-74
2023/01/28 06:03:10;;;;;;;15.35;2.97;;;;;;;;;;7391357;19;20794;-74
2023/01/28 06:05:35;;;;;;;14.20;2.72;;;;;;;;;;7391049;19;20490;-76
2023/01/28 06:08:01;;;;;;;15.85;2.92;;;;;;;;;;7391652;19;19998;-75
2023/01/28 06:10:26;;;;;;;15.63;2.28;;;;;;;;;;7390645;19;19998;-75
2023/01/28 06:12:51;;;;;;;12.68;2.55;;;;;;;;;;7391560;19;19998;-74
2023/01/28 06:15:17;;;;;;;22.42;3.17;;;;;;;;;;7391543;19;20003;-77
2023/01/28 06:17:42;;;;;;;15.07;2.67;;;;;;;;;;7391069;19;20015;-76
2023/01/28 06:20:08;;;;;;;7.65;1.88;;;;;;;;;;7391402;19;20016;-74
2023/01/28 06:22:34;;;;;;;6.40;1.95;;;;;;;;;;7389209;19;20338;-75
2023/01/28 06:24:59;;;;;;;6.13;1.73;;;;;;;;;;7391268;19;20028;-76
2023/01/28 06:27:24;;;;;;;12.52;2.25;;;;;;;;;;7391233;19;19998;-74
2023/01/28 06:29:50;;;;;;;3.92;1.80;;;;;;;;;;7391656;19;20470;-76
2023/01/28 06:32:15;;;;;;;2.17;1.65;;;;;;;;;;7391159;19;19998;-76
2023/01/28 06:34:40;;;;;;;5.53;1.48;;;;;;;;;;7390463;19;19994;-75
2023/01/28 06:37:06;;;;;;;1.67;1.40;;;;;;;;;;7391076;19;20002;-74
2023/01/28 06:39:32;;;;;;;7.15;2.03;;;;;;;;;;7388390;19;19999;-74
2023/01/28 06:41:57;;;;;;;3.55;1.90;;;;;;;;;;7391182;19;20003;-75
2023/01/28 06:44:23;;;;;;;8.70;1.85;;;;;;;;;;7390674;19;20055;-75
2023/01/28 06:46:48;;;;;;;2.75;1.40;;;;;;;;;;7390895;19;20001;-75
2023/01/28 06:49:14;;;;;;;4.57;1.85;;;;;;;;;;7388593;19;20470;-74
2023/01/28 06:51:39;;;;;;;8.00;2.05;;;;;;;;;;7391174;19;20068;-76
2023/01/28 06:54:05;;;;;;;7.72;2.08;;;;;;;;;;7390350;19;20531;-76
2023/01/28 06:56:30;;;;;;;5.10;2.35;;;;;;;;;;7390636;19;19999;-74
2023/01/28 06:58:55;;;;;;;8.70;3.00;;;;;;;;;;7389590;19;19999;-75
2023/01/28 07:01:21;;;;;;;15.30;2.80;;;;;;;;;;7391360;19;20441;-74
2023/01/28 07:03:46;;;;;;;13.15;2.97;;;;;;;;;;7389105;19;19995;-75
2023/01/28 07:06:12;;;;;;;11.65;3.17;;;;;;;;;;7390293;19;20001;-74
2023/01/28 07:08:38;;;;;;;20.48;3.13;;;;;;;;;;7392004;19;20006;-75
2023/01/28 07:11:04;;;;;;;20.08;2.80;;;;;;;;;;7390159;19;20005;-74
2023/01/28 07:13:29;;;;;;;7.65;2.15;;;;;;;;;;7389150;19;19998;-75
2023/01/28 07:15:55;;;;;;;10.85;2.38;;;;;;;;;;7389766;19;20003;-75
2023/01/28 07:18:20;;;;;;;4.60;2.13;;;;;;;;;;7386634;19;20011;-74
2023/01/28 07:20:45;;;;;;;5.05;1.88;;;;;;;;;;7387866;19;20009;-75
2023/01/28 07:23:11;;;;;;;10.35;2.42;;;;;;;;;;7388212;19;19991;-74
2023/01/28 07:25:36;;;;;;;13.82;2.65;;;;;;;;;;7387220;19;20583;-74
2023/01/28 07:28:02;;;;;;;25.55;2.92;;;;;;;;;;7391926;19;19991;-74
2023/01/28 07:30:27;;;;;;;13.07;2.90;;;;;;;;;;7390101;19;19999;-75
2023/01/28 07:32:54;;;;;;;17.50;2.78;;;;;;;;;;7392472;19;20016;-75
2023/01/28 07:35:19;;;;;;;10.25;2.70;;;;;;;;;;7392744;19;20009;-75
2023/01/28 07:37:59;;;;;;;12.32;2.92;;;;;;;;;;7392587;19;20452;-75
2023/01/28 07:40:25;;;;;;;17.50;3.30;;;;;;;;;;7393213;19;20074;-74
2023/01/28 07:42:52;;;;;;;33.80;3.72;;;;;;;;;;7389858;19;20423;-74
2023/01/28 07:45:18;;;;;;;22.52;4.00;;;;;;;;;;7388912;19;19998;-74
2023/01/28 07:47:43;;;;;;;28.67;4.57;;;;;;;;;;7388255;19;20007;-74
2023/01/28 07:50:10;;;;;;;23.95;4.15;;;;;;;;;;7390335;19;20002;-75
2023/01/28 07:52:43;;;;;;;9.50;2.90;;;;;;;;;;7388937;19;20390;-75
2023/01/28 07:55:15;;;;;;;16.13;3.35;;;;;;;;;;7389266;19;20010;-74
2023/01/28 07:57:51;;;;;;;20.65;4.50;;;;;;;;;;7389090;19;20480;-75
2023/01/28 08:00:17;;;;;;;12.85;3.75;;;;;;;;;;7388910;19;20002;-74
2023/01/28 08:02:45;;;;;;;12.80;3.28;;;;;;;;;;7387748;19;20003;-76
2023/01/28 08:05:10;;;;;;;7.20;2.53;;;;;;;;;;7388694;19;20043;-76
2023/01/28 08:07:35;;;;;;;21.50;3.88;;;;;;;;;;7388717;19;20608;-75
2023/01/28 08:10:00;;;;;;;11.95;3.15;;;;;;;;;;7387418;19;19999;-74
2023/01/28 08:12:26;;;;;;;11.10;2.88;;;;;;;;;;7388712;19;20071;-75
2023/01/28 08:14:51;;;;;;;13.50;3.17;;;;;;;;;;7385767;19;20322;-75
2023/01/28 08:17:17;;;;;;;8.77;3.03;;;;;;;;;;7386916;19;19990;-78
2023/01/28 08:19:42;;;;;;;8.40;2.78;;;;;;;;;;7391629;19;20492;-77
2023/01/28 08:22:07;;;;;;;8.35;3.05;;;;;;;;;;7391115;19;20348;-78
2023/01/28 08:24:33;;;;;;;12.48;2.80;;;;;;;;;;7388768;19;20516;-77
2023/01/28 08:26:58;;;;;;;13.68;3.10;;;;;;;;;;7387940;19;20389;-76
2023/01/28 08:29:23;;;;;;;6.40;2.78;;;;;;;;;;7386377;19;19995;-77
2023/01/28 08:31:49;;;;;;;12.10;3.33;;;;;;;;;;7380768;19;20035;-76
2023/01/28 08:34:14;;;;;;;14.75;3.67;;;;;;;;;;7383570;19;20357;-76
2023/01/28 08:36:39;;;;;;;20.83;3.08;;;;;;;;;;7381989;19;20009;-76
2023/01/28 08:39:05;;;;;;;7.30;2.70;;;;;;;;;;7383861;19;20010;-75
2023/01/28 08:41:30;;;;;;;9.30;2.80;;;;;;;;;;7383835;19;20030;-76
2023/01/28 08:43:56;;;;;;;14.52;3.47;;;;;;;;;;7392375;19;20015;-76
2023/01/28 08:46:21;;;;;;;15.52;3.00;;;;;;;;;;7390446;19;20002;-75
2023/01/28 08:48:49;;;;;;;10.00;2.60;;;;;;;;;;7388909;19;20036;-74
2023/01/28 08:51:14;;;;;;;11.43;2.55;;;;;;;;;;7392494;19;19998;-74
2023/01/28 08:53:39;;;;;;;6.43;2.00;;;;;;;;;;7392317;19;20020;-75
2023/01/28 08:56:05;;;;;;;4.13;2.08;;;;;;;;;;7394120;19;20468;-76
2023/01/28 08:58:31;;;;;;;5.93;2.30;;;;;;;;;;7389143;19;20059;-76
2023/01/28 09:00:59;;;;;;;6.97;2.65;;;;;;;;;;7393078;19;20007;-76
2023/01/28 09:03:25;;;;;;;6.22;2.38;;;;;;;;;;7386882;19;20372;-76
2023/01/28 09:05:50;;;;;;;9.50;2.58;;;;;;;;;;7388931;19;19995;-76
2023/01/28 09:08:15;;;;;;;3.80;1.95;;;;;;;;;;7385871;19;20002;-75
2023/01/28 09:10:41;;;;;;;5.35;2.30;;;;;;;;;;7389282;19;20020;-77
2023/01/28 09:13:16;;;;;;;9.57;2.33;;;;;;;;;;7387796;19;20002;-77
2023/01/28 09:15:41;;;;;;;10.65;2.10;;;;;;;;;;7389379;19;20523;-75
2023/01/28 09:18:07;;;;;;;7.22;2.58;;;;;;;;;;7391929;19;20007;-77
2023/01/28 09:20:32;;;;;;;6.65;2.08;;;;;;;;;;7390378;19;20002;-77
2023/01/28 09:22:59;;;;;;;4.32;2.08;;;;;;;;;;7390478;19;20099;-75
2023/01/28 09:25:25;;;;;;;6.10;2.10;;;;;;;;;;7393871;19;20019;-75
2023/01/28 09:27:50;;;;;;;5.70;2.10;;;;;;;;;;7392424;19;20006;-76
2023/01/28 09:30:16;;;;;;;9.00;3.50;;;;;;;;;;7392036;19;20005;-76
2023/01/28 09:32:41;;;;;;;6.65;2.65;;;;;;;;;;7396628;19;20010;-74
2023/01/28 09:35:07;;;;;;;4.22;1.98;;;;;;;;;;7393402;19;20002;-76
2023/01/28 09:37:32;;;;;;;7.75;2.40;;;;;;;;;;7392607;19;20002;-76
2023/01/28 09:39:57;;;;;;;2.88;1.75;;;;;;;;;;7392866;19;20028;-73
2023/01/28 09:43:08;;;;;;;2.65;1.60;;;;;;;;;;7388990;19;19999;-75
2023/01/28 09:45:41;;;;;;;5.88;1.90;;;;;;;;;;7388389;19;20354;-73
2023/01/28 09:48:20;;;;;;;2.58;1.40;;;;;;;;;;7392302;19;20012;-74
2023/01/28 09:50:49;;;;;;;1.90;1.40;;;;;;;;;;7393212;19;20005;-74
2023/01/28 09:53:20;;;;;;;4.60;1.50;;;;;;;;;;7394336;19;19994;-75
2023/01/28 09:55:47;;;;;;;;;;;;;;;;;;7397435;19;20516;-75
2023/01/28 09:58:16;;;;;;;5.03;2.33;;;;;;;;;;7395580;19;19935;-73
2023/01/28 10:01:03;;;;;;;7.32;2.15;;;;;;;;;;7396569;19;19994;-75
2023/01/28 10:03:40;;;;;;;3.13;1.80;;;;;;;;;;7393879;19;20002;-76
2023/01/28 10:06:15;;;;;;;9.18;2.25;;;;;;;;;;7390773;19;20398;-75
2023/01/28 10:08:52;;;;;;;1.95;1.20;;;;;;;;;;7385848;19;20441;-75
2023/01/28 10:11:40;;;;;;;3.97;1.88;;;;;;;;;;7388711;19;19991;-74
2023/01/28 10:14:24;;;;;;;4.32;2.03;;;;;;;;;;7386598;19;20283;-75
2023/01/28 10:17:07;;;;;;;8.73;1.90;;;;;;;;;;7390402;19;20013;-77
2023/01/28 10:19:41;;;;;;;4.47;1.77;;;;;;;;;;7385023;19;20436;-74
2023/01/28 10:22:20;;;;;;;9.25;2.22;;;;;;;;;;7391553;19;20011;-74
2023/01/28 10:25:05;;;;;;;2.88;1.33;;;;;;;;;;7388913;19;20416;-75
2023/01/28 10:27:32;;;;;;;5.10;2.00;;;;;;;;;;7388863;19;20002;-75
2023/01/28 10:30:16;;;;;;;14.05;4.82;;;;;;;;;;7386780;19;20033;-75
2023/01/28 10:32:50;;;;;;;9.10;2.42;;;;;;;;;;7384390;19;19999;-75
2023/01/28 10:35:15;;;;;;;5.85;2.58;;;;;;;;;;7387875;19;19999;-74
2023/01/28 10:37:41;;;;;;;4.40;2.05;;;;;;;;;;7390229;19;20002;-75
2023/01/28 10:40:13;;;;;;;3.58;1.58;;;;;;;;;;7391446;19;20002;-74
2023/01/28 10:42:39;;;;;;;4.70;1.80;;;;;;;;;;7391482;19;19995;-75
2023/01/28 10:45:25;;;;;;;8.25;2.17;;;;;;;;;;7391550;19;20015;-75
2023/01/28 10:47:58;;;;;;;4.45;2.08;;;;;;;;;;7389917;19;20019;-74
2023/01/28 10:50:27;;;;;;;2.88;1.60;;;;;;;;;;7390321;19;19995;-75
2023/01/28 10:53:04;;;;;;;3.20;1.90;;;;;;;;;;7394480;19;20061;-75
2023/01/28 10:55:53;;;;;;;7.93;2.33;;;;;;;;;;7390739;19;20002;-76
2023/01/28 10:58:24;;;;;;;8.77;2.28;;;;;;;;;;7389853;19;20015;-74
2023/01/28 11:00:53;;;;;;;;;;;;;;;;;;7391261;19;19995;-75
2023/01/28 11:03:19;;;;;;;2.38;1.38;;;;;;;;;;7392374;19;19911;-75
2023/01/28 11:05:53;;;;;;;4.50;1.83;;;;;;;;;;7387339;19;20007;-75
2023/01/28 11:08:19;;;;;;;2.70;1.48;;;;;;;;;;7388833;19;20003;-76
2023/01/28 11:10:46;;;;;;;5.20;2.00;;;;;;;;;;7388109;19;20611;-74
2023/01/28 11:13:25;;;;;;;3.88;1.73;;;;;;;;;;7389479;19;20005;-75
2023/01/28 11:16:03;;;;;;;4.28;1.63;;;;;;;;;;7391968;19;20084;-75
2023/01/28 11:18:30;;;;;;;4.97;1.80;;;;;;;;;;7388393;19;20005;-74
2023/01/28 11:20:58;;;;;;;3.67;1.88;;;;;;;;;;7389924;19;20058;-75
2023/01/28 11:23:30;;;;;;;8.65;2.60;;;;;;;;;;7388321;19;20106;-75
2023/01/28 11:26:01;;;;;;;;;;;;;;;;;;7390108;19;20001;-77
2023/01/28 11:28:27;;;;;;;3.55;1.70;;;;;;;;;;7386322;19;19944;-74
2023/01/28 11:30:55;;;;;;;3.75;1.45;;;;;;;;;;7389233;19;19998;-75
2023/01/28 11:33:30;;;;;;;3.28;1.75;;;;;;;;;;7388619;19;20022;-75
2023/01/28 11:36:02;;;;;;;4.68;2.08;;;;;;;;;;7389363;19;19994;-75
2023/01/28 11:38:27;;;;;;;5.22;1.50;;;;;;;;;;7387805;19;20001;-75
2023/01/28 11:40:55;;;;;;;8.65;2.30;;;;;;;;;;7388824;19;20050;-75
2023/01/28 11:43:22;;;;;;;4.32;1.90;;;;;;;;;;7387888;19;20348;-75
2023/01/28 11:46:09;;;;;;;2.28;1.33;;;;;;;;;;7388930;19;19995;-74
2023/01/28 11:48:54;;;;;;;3.88;1.88;;;;;;;;;;7387753;19;20002;-75
2023/01/28 11:51:42;;;;;;;3.25;2.22;;;;;;;;;;7388739;19;20484;-75
2023/01/28 11:54:32;;;;;;;17.00;2.92;;;;;;;;;;7388073;19;19995;-75
2023/01/28 11:57:26;;;;;;;14.82;2.80;;;;;;;;;;7392903;19;20009;-75
2023/01/28 12:00:03;;;;;;;15.25;2.67;;;;;;;;;;7387985;19;20432;-75
2023/01/28 12:02:52;;;;;;;11.98;1.98;;;;;;;;;;7388608;19;20461;-75
2023/01/28 12:05:41;;;;;;;22.17;3.13;;;;;;;;;;7388323;19;20015;-75
2023/01/28 12:08:39;;;;;;;5.28;1.80;;;;;;;;;;7387647;19;20334;-75
2023/01/28 12:11:07;;;;;;;2.22;1.27;;;;;;;;;;7388382;19;19998;-75
2023/01/28 12:13:47;;;;;;;2.17;1.27;;;;;;;;;;7387300;19;20552;-74
2023/01/28 12:16:27;;;;;;;2.60;1.67;;;;;;;;;;7387650;19;20062;-77
2023/01/28 12:19:27;;;;;;;2.17;1.70;;;;;;;;;;7386765;19;20070;-75
2023/01/28 12:22:35;;;;;;;2.80;1.65;;;;;;;;;;7388158;19;19995;-74
2023/01/28 12:25:14;;;;;;;4.97;1.52;;;;;;;;;;7387028;19;20436;-74
2023/01/28 12:28:19;;;;;;;1.48;1.05;;;;;;;;;;7387010;19;20009;-76
2023/01/28 12:31:06;;;;;;;3.03;1.73;;;;;;;;;;7389248;19;19995;-76
2023/01/28 12:34:01;;;;;;;6.78;2.00;;;;;;;;;;7390191;19;20002;-76
2023/01/28 12:36:55;;;;;;;1.67;1.20;;;;;;;;;;7390290;19;19998;-76
2023/01/28 12:39:41;;;;;;;2.47;1.42;;;;;;;;;;7384947;19;20277;-75
2023/01/28 12:42:22;;;;;;;3.28;1.58;;;;;;;;;;7386927;19;20066;-75
2023/01/28 12:44:58;;;;;;;5.93;1.88;;;;;;;;;;7385555;19;19999;-75
2023/01/28 12:47:37;;;;;;;2.33;1.60;;;;;;;;;;7385474;19;20398;-75
2023/01/28 12:50:12;;;;;;;5.63;1.90;;;;;;;;;;7386875;19;20215;-76
2023/01/28 12:52:43;;;;;;;8.68;2.70;;;;;;;;;;7386323;19;19998;-76
2023/01/28 12:55:28;;;;;;;14.10;2.63;;;;;;;;;;7386722;19;20003;-75
2023/01/28 12:57:57;;;;;;;5.00;1.58;;;;;;;;;;7383956;19;20023;-75
2023/01/28 13:00:32;;;;;;;2.75;1.80;;;;;;;;;;7385848;19;19998;-76
2023/01/28 13:03:09;;;;;;;3.53;2.22;;;;;;;;;;7385631;19;19999;-75
2023/01/28 13:05:40;;;;;;;3.67;1.90;;;;;;;;;;7385996;19;20002;-76
2023/01/28 13:08:15;;;;;;;4.97;2.22;;;;;;;;;;7385774;19;20003;-76
2023/01/28 13:10:43;;;;;;;5.55;2.50;;;;;;;;;;7389389;19;19991;-75
2023/01/28 13:13:35;;;;;;;3.35;1.60;;;;;;;;;;7385334;19;20696;-75
2023/01/28 13:16:02;;;;;;;3.95;1.60;;;;;;;;;;7383146;19;19998;-76
2023/01/28 13:18:46;;;;;;;3.83;1.48;;;;;;;;;;7384704;19;20006;-76
2023/01/28 13:21:23;;;;;;;4.80;1.60;;;;;;;;;;7385934;19;19995;-76
2023/01/28 13:23:50;;;;;;;1.95;1.38;;;;;;;;;;7383622;19;20013;-75
2023/01/28 13:26:19;;;;;;;4.22;1.35;;;;;;;;;;7385696;19;20006;-77
2023/01/28 13:28:46;;;;;;;6.95;1.60;;;;;;;;;;7389689;19;19998;-77
2023/01/28 13:31:16;;;;;;;2.88;1.42;;;;;;;;;;7392992;19;20517;-73
2023/01/28 13:33:46;;;;;;;6.78;1.55;;;;;;;;;;7384283;19;20018;-75
2023/01/28 13:36:36;;;;;;;4.35;1.63;;;;;;;;;;7389704;19;20473;-75
2023/01/28 13:39:05;;;;;;;3.75;1.52;;;;;;;;;;7386534;19;20099;-76
2023/01/28 13:41:43;;;;;;;12.45;1.77;;;;;;;;;;7390905;19;20081;-74
2023/01/28 13:44:24;;;;;;;2.28;1.55;;;;;;;;;;7385711;19;20839;-74
2023/01/28 13:46:53;;;;;;;2.23;1.40;;;;;;;;;;7386727;19;20007;-73
2023/01/28 13:49:27;;;;;;;4.63;1.38;;;;;;;;;;7387303;19;20035;-73
2023/01/28 13:52:03;;;;;;;10.57;1.60;;;;;;;;;;7386909;19;20026;-76
2023/01/28 13:54:32;;;;;;;5.30;1.52;;;;;;;;;;7390634;19;20003;-74
2023/01/28 13:56:57;;;;;;;2.45;1.67;;;;;;;;;;7389217;19;20369;-76
2023/01/28 13:59:32;;;;;;;3.38;1.60;;;;;;;;;;7386460;19;20006;-74
2023/01/28 14:02:16;;;;;;;14.48;2.05;;;;;;;;;;7389342;19;20003;-74
2023/01/28 14:05:14;;;;;;;3.92;1.60;;;;;;;;;;7388723;19;20003;-73
2023/01/28 14:07:45;;;;;;;2.53;1.65;;;;;;;;;;7391166;19;20126;-73
2023/01/28 14:10:13;;;;;;;;;;;;;;;;;;7389574;19;20357;-74
2023/01/28 14:13:05;;;;;;;3.65;1.65;;;;;;;;;;7391104;19;19939;-74
2023/01/28 14:15:51;;;;;;;15.55;1.95;;;;;;;;;;7388931;19;20013;-75
2023/01/28 14:18:23;;;;;;;9.95;2.00;;;;;;;;;;7387452;19;19995;-75
2023/01/28 14:20:51;;;;;;;2.00;1.40;;;;;;;;;;7384681;19;20364;-76
2023/01/28 14:23:20;;;;;;;4.85;1.70;;;;;;;;;;7390544;19;20029;-75
2023/01/28 14:26:04;;;;;;;5.10;1.70;;;;;;;;;;7387445;19;20006;-74
2023/01/28 14:28:35;;;;;;;3.90;1.70;;;;;;;;;;7389742;19;20394;-73
2023/01/28 14:31:17;;;;;;;8.77;1.88;;;;;;;;;;7386045;19;20007;-74
2023/01/28 14:33:42;;;;;;;;;;;;;;;;;;7389527;19;20035;-76
2023/01/28 14:36:11;;;;;;;5.82;1.48;;;;;;;;;;7385778;19;20330;-74
2023/01/28 14:38:40;;;;;;;3.50;1.95;;;;;;;;;;7388261;19;20341;-73
2023/01/28 14:41:07;;;;;;;10.90;2.40;;;;;;;;;;7389240;19;20010;-72
2023/01/28 14:43:33;;;;;;;11.27;2.75;;;;;;;;;;7389253;19;20223;-74
2023/01/28 14:46:15;;;;;;;8.73;2.25;;;;;;;;;;7386532;19;20110;-75
2023/01/28 14:48:47;;;;;;;6.53;1.63;;;;;;;;;;7388308;19;20017;-74
2023/01/28 14:51:34;;;;;;;7.53;1.75;;;;;;;;;;7386757;19;20006;-73
2023/01/28 14:54:17;;;;;;;5.95;1.50;;;;;;;;;;7386751;19;20006;-73
2023/01/28 14:57:08;;;;;;;1.70;1.38;;;;;;;;;;7388112;19;19998;-73
2023/01/28 14:59:48;;;;;;;5.35;1.63;;;;;;;;;;7386651;19;20013;-74
2023/01/28 15:02:23;;;;;;;2.58;1.50;;;;;;;;;;7386796;19;19999;-75
2023/01/28 15:04:49;;;;;;;1.40;1.30;;;;;;;;;;7386537;19;20413;-74
2023/01/28 15:07:22;;;;;;;1.77;1.40;;;;;;;;;;7387485;19;20002;-75
2023/01/28 15:10:01;;;;;;;3.08;1.50;;;;;;;;;;7386196;19;20023;-75
2023/01/28 15:12:28;;;;;;;3.55;1.80;;;;;;;;;;7387130;19;20108;-74
2023/01/28 15:14:53;;;;;;;2.83;1.45;;;;;;;;;;7387394;19;20101;-73
2023/01/28 15:17:26;;;;;;;2.28;1.50;;;;;;;;;;7387127;19;20486;-74
2023/01/28 15:19:56;;;;;;;4.18;1.90;;;;;;;;;;7384626;19;19998;-74
2023/01/28 15:22:26;;;;;;;2.63;1.70;;;;;;;;;;7388140;19;20013;-74
2023/01/28 15:24:53;;;;;;;4.45;1.90;;;;;;;;;;7386433;19;20002;-74
2023/01/28 15:27:27;;;;;;;5.63;1.73;;;;;;;;;;7388884;19;20006;-73
2023/01/28 15:29:54;;;;;;;3.28;1.80;;;;;;;;;;7387861;19;20008;-75
2023/01/28 15:32:26;;;;;;;3.33;1.55;;;;;;;;;;7390958;19;20357;-75
2023/01/28 15:34:51;;;;;;;8.38;2.40;;;;;;;;;;7389912;19;20002;-75
2023/01/28 15:37:18;;;;;;;3.17;1.80;;;;;;;;;;7392813;19;20350;-74